sensor_id;sensor_type;location;lat;lon;timestamp;P1;durP1;ratioP1;P2;durP2;ratioP2
11283;SDS011;5698;47.332;11.180;2024-03-02T00:01:35;4.30;;;3.03;;
11283;SDS011;5698;47.332;11.180;2024-03-02T00:04:03;4.57;;;3.40;;
11283;SDS011;5698;47.332;11.180;2024-03-02T00:06:31;5.10;;;3.30;;
11283;SDS011;5698;47.332;11.180;2024-03-02T00:08:58;3.80;;;3.30;;
11283;SDS011;5698;47.332;11.180;2024-03-02T00:11:27;4.30;;;3.80;;
11283;SDS011;5698;47.332;11.180;2024-03-02T00:13:54;5.67;;;4.07;;
11283;SDS011;5698;47.332;11.180;2024-03-02T00:16:21;5.30;;;4.63;;
11283;SDS011;5698;47.332;11.180;2024-03-02T00:18:49;5.33;;;4.47;;
11283;SDS011;5698;47.332;11.180;2024-03-02T00:21:16;6.77;;;5.40;;
11283;SDS011;5698;47.332;11.180;2024-03-02T00:23:45;5.10;;;4.40;;
11283;SDS011;5698;47.332;11.180;2024-03-02T00:26:12;5.53;;;4.90;;
11283;SDS011;5698;47.332;11.180;2024-03-02T00:28:41;5.13;;;4.27;;
11283;SDS011;5698;47.332;11.180;2024-03-02T00:31:10;5.53;;;4.87;;
11283;SDS011;5698;47.332;11.180;2024-03-02T00:33:40;6.40;;;4.97;;
11283;SDS011;5698;47.332;11.180;2024-03-02T00:36:08;7.20;;;5.37;;
11283;SDS011;5698;47.332;11.180;2024-03-02T00:38:44;9.37;;;6.27;;
11283;SDS011;5698;47.332;11.180;2024-03-02T00:41:19;8.10;;;5.60;;
11283;SDS011;5698;47.332;11.180;2024-03-02T00:43:52;7.57;;;6.03;;
11283;SDS011;5698;47.332;11.180;2024-03-02T00:46:24;6.90;;;5.53;;
11283;SDS011;5698;47.332;11.180;2024-03-02T00:48:55;6.47;;;5.40;;
11283;SDS011;5698;47.332;11.180;2024-03-02T00:51:23;8.10;;;5.57;;
11283;SDS011;5698;47.332;11.180;2024-03-02T00:53:51;5.70;;;5.10;;
11283;SDS011;5698;47.332;11.180;2024-03-02T00:56:21;8.67;;;5.90;;
11283;SDS011;5698;47.332;11.180;2024-03-02T00:58:48;7.13;;;5.90;;
11283;SDS011;5698;47.332;11.180;2024-03-02T01:01:16;6.43;;;5.73;;
11283;SDS011;5698;47.332;11.180;2024-03-02T01:03:44;6.57;;;5.30;;
11283;SDS011;5698;47.332;11.180;2024-03-02T01:06:12;6.23;;;5.53;;
11283;SDS011;5698;47.332;11.180;2024-03-02T01:08:39;6.67;;;5.70;;
11283;SDS011;5698;47.332;11.180;2024-03-02T01:11:06;7.27;;;6.07;;
11283;SDS011;5698;47.332;11.180;2024-03-02T01:13:33;8.83;;;6.57;;
11283;SDS011;5698;47.332;11.180;2024-03-02T01:16:00;7.07;;;6.27;;
11283;SDS011;5698;47.332;11.180;2024-03-02T01:18:29;8.30;;;6.17;;
11283;SDS011;5698;47.332;11.180;2024-03-02T01:20:56;8.90;;;6.10;;
11283;SDS011;5698;47.332;11.180;2024-03-02T01:23:23;6.93;;;6.17;;
11283;SDS011;5698;47.332;11.180;2024-03-02T01:25:51;7.83;;;6.87;;
11283;SDS011;5698;47.332;11.180;2024-03-02T01:28:18;8.90;;;6.00;;
11283;SDS011;5698;47.332;11.180;2024-03-02T01:30:46;8.53;;;7.23;;
11283;SDS011;5698;47.332;11.180;2024-03-02T01:33:14;10.43;;;7.83;;
11283;SDS011;5698;47.332;11.180;2024-03-02T01:35:42;10.40;;;8.37;;
11283;SDS011;5698;47.332;11.180;2024-03-02T01:38:09;11.30;;;8.60;;
11283;SDS011;5698;47.332;11.180;2024-03-02T01:40:36;9.07;;;8.13;;
11283;SDS011;5698;47.332;11.180;2024-03-02T01:43:04;9.73;;;8.10;;
11283;SDS011;5698;47.332;11.180;2024-03-02T01:45:31;9.57;;;7.70;;
11283;SDS011;5698;47.332;11.180;2024-03-02T01:47:57;12.73;;;9.20;;
11283;SDS011;5698;47.332;11.180;2024-03-02T01:50:25;10.47;;;7.87;;
11283;SDS011;5698;47.332;11.180;2024-03-02T01:52:54;10.30;;;8.20;;
11283;SDS011;5698;47.332;11.180;2024-03-02T01:55:21;14.70;;;10.30;;
11283;SDS011;5698;47.332;11.180;2024-03-02T01:57:48;11.40;;;9.03;;
11283;SDS011;5698;47.332;11.180;2024-03-02T02:00:17;10.07;;;8.13;;
11283;SDS011;5698;47.332;11.180;2024-03-02T02:02:44;10.23;;;8.57;;
11283;SDS011;5698;47.332;11.180;2024-03-02T02:05:11;9.93;;;8.57;;
11283;SDS011;5698;47.332;11.180;2024-03-02T02:07:39;11.07;;;8.23;;
11283;SDS011;5698;47.332;11.180;2024-03-02T02:10:08;10.07;;;7.33;;
11283;SDS011;5698;47.332;11.180;2024-03-02T02:12:36;9.50;;;7.50;;
11283;SDS011;5698;47.332;11.180;2024-03-02T02:15:04;9.33;;;7.13;;
11283;SDS011;5698;47.332;11.180;2024-03-02T02:17:47;9.53;;;7.20;;
11283;SDS011;5698;47.332;11.180;2024-03-02T02:20:14;10.40;;;8.20;;
11283;SDS011;5698;47.332;11.180;2024-03-02T02:22:53;9.63;;;8.03;;
11283;SDS011;5698;47.332;11.180;2024-03-02T02:25:21;10.53;;;8.27;;
11283;SDS011;5698;47.332;11.180;2024-03-02T02:27:48;11.77;;;8.57;;
11283;SDS011;5698;47.332;11.180;2024-03-02T02:30:18;10.70;;;8.93;;
11283;SDS011;5698;47.332;11.180;2024-03-02T02:32:46;12.67;;;9.77;;
11283;SDS011;5698;47.332;11.180;2024-03-02T02:35:13;10.67;;;9.13;;
11283;SDS011;5698;47.332;11.180;2024-03-02T02:37:40;11.20;;;9.80;;
11283;SDS011;5698;47.332;11.180;2024-03-02T02:40:09;12.20;;;9.80;;
11283;SDS011;5698;47.332;11.180;2024-03-02T02:42:37;12.13;;;9.40;;
11283;SDS011;5698;47.332;11.180;2024-03-02T02:45:05;11.43;;;9.80;;
11283;SDS011;5698;47.332;11.180;2024-03-02T02:47:32;14.47;;;10.50;;
11283;SDS011;5698;47.332;11.180;2024-03-02T02:50:00;13.30;;;9.90;;
11283;SDS011;5698;47.332;11.180;2024-03-02T02:52:30;14.10;;;10.90;;
11283;SDS011;5698;47.332;11.180;2024-03-02T02:55:00;14.63;;;10.80;;
11283;SDS011;5698;47.332;11.180;2024-03-02T02:57:30;12.20;;;10.07;;
11283;SDS011;5698;47.332;11.180;2024-03-02T03:00:00;11.93;;;9.77;;
11283;SDS011;5698;47.332;11.180;2024-03-02T03:02:30;11.70;;;9.13;;
11283;SDS011;5698;47.332;11.180;2024-03-02T03:04:57;12.90;;;8.97;;
11283;SDS011;5698;47.332;11.180;2024-03-02T03:07:24;12.40;;;9.97;;
11283;SDS011;5698;47.332;11.180;2024-03-02T03:09:51;14.23;;;10.13;;
11283;SDS011;5698;47.332;11.180;2024-03-02T03:12:18;12.37;;;8.67;;
11283;SDS011;5698;47.332;11.180;2024-03-02T03:14:46;12.60;;;9.67;;
11283;SDS011;5698;47.332;11.180;2024-03-02T03:17:13;10.40;;;8.97;;
11283;SDS011;5698;47.332;11.180;2024-03-02T03:19:40;9.90;;;8.30;;
11283;SDS011;5698;47.332;11.180;2024-03-02T03:22:07;9.57;;;8.00;;
11283;SDS011;5698;47.332;11.180;2024-03-02T03:24:34;10.27;;;8.70;;
11283;SDS011;5698;47.332;11.180;2024-03-02T03:27:01;10.73;;;8.63;;
11283;SDS011;5698;47.332;11.180;2024-03-02T03:29:28;10.50;;;8.77;;
11283;SDS011;5698;47.332;11.180;2024-03-02T03:31:57;10.80;;;8.57;;
11283;SDS011;5698;47.332;11.180;2024-03-02T03:34:24;11.37;;;8.80;;
11283;SDS011;5698;47.332;11.180;2024-03-02T03:36:52;9.53;;;8.23;;
11283;SDS011;5698;47.332;11.180;2024-03-02T03:39:19;9.40;;;8.00;;
11283;SDS011;5698;47.332;11.180;2024-03-02T03:41:46;8.77;;;7.87;;
11283;SDS011;5698;47.332;11.180;2024-03-02T03:44:13;8.63;;;7.43;;
11283;SDS011;5698;47.332;11.180;2024-03-02T03:46:40;7.73;;;6.93;;
11283;SDS011;5698;47.332;11.180;2024-03-02T03:49:08;9.70;;;7.33;;
11283;SDS011;5698;47.332;11.180;2024-03-02T03:51:35;7.70;;;6.90;;
11283;SDS011;5698;47.332;11.180;2024-03-02T03:54:02;8.07;;;7.27;;
11283;SDS011;5698;47.332;11.180;2024-03-02T03:56:29;7.33;;;6.57;;
11283;SDS011;5698;47.332;11.180;2024-03-02T03:58:56;8.63;;;7.13;;
11283;SDS011;5698;47.332;11.180;2024-03-02T04:01:24;7.73;;;6.53;;
11283;SDS011;5698;47.332;11.180;2024-03-02T04:03:51;6.87;;;6.10;;
11283;SDS011;5698;47.332;11.180;2024-03-02T04:06:20;6.97;;;6.27;;
11283;SDS011;5698;47.332;11.180;2024-03-02T04:08:47;6.20;;;5.60;;
11283;SDS011;5698;47.332;11.180;2024-03-02T04:11:14;6.47;;;5.77;;
11283;SDS011;5698;47.332;11.180;2024-03-02T04:13:41;6.03;;;5.37;;
11283;SDS011;5698;47.332;11.180;2024-03-02T04:16:08;6.17;;;5.57;;
11283;SDS011;5698;47.332;11.180;2024-03-02T04:18:34;5.77;;;5.27;;
11283;SDS011;5698;47.332;11.180;2024-03-02T04:21:01;5.63;;;5.03;;
11283;SDS011;5698;47.332;11.180;2024-03-02T04:23:30;6.20;;;5.40;;
11283;SDS011;5698;47.332;11.180;2024-03-02T04:25:57;5.37;;;4.83;;
11283;SDS011;5698;47.332;11.180;2024-03-02T04:28:24;5.90;;;5.10;;
11283;SDS011;5698;47.332;11.180;2024-03-02T04:30:51;5.50;;;4.93;;
11283;SDS011;5698;47.332;11.180;2024-03-02T04:33:18;5.40;;;4.87;;
11283;SDS011;5698;47.332;11.180;2024-03-02T04:35:45;6.67;;;5.60;;
11283;SDS011;5698;47.332;11.180;2024-03-02T04:38:12;7.47;;;6.00;;
11283;SDS011;5698;47.332;11.180;2024-03-02T04:40:41;5.73;;;4.90;;
11283;SDS011;5698;47.332;11.180;2024-03-02T04:43:08;6.50;;;5.77;;
11283;SDS011;5698;47.332;11.180;2024-03-02T04:45:37;6.80;;;5.53;;
11283;SDS011;5698;47.332;11.180;2024-03-02T04:48:05;5.67;;;4.97;;
11283;SDS011;5698;47.332;11.180;2024-03-02T04:50:32;6.57;;;5.17;;
11283;SDS011;5698;47.332;11.180;2024-03-02T04:52:59;5.97;;;5.23;;
11283;SDS011;5698;47.332;11.180;2024-03-02T04:55:26;6.30;;;5.40;;
11283;SDS011;5698;47.332;11.180;2024-03-02T04:58:22;6.03;;;5.23;;
11283;SDS011;5698;47.332;11.180;2024-03-02T05:00:49;6.93;;;5.63;;
11283;SDS011;5698;47.332;11.180;2024-03-02T05:03:16;5.57;;;4.53;;
11283;SDS011;5698;47.332;11.180;2024-03-02T05:05:43;6.63;;;5.23;;
11283;SDS011;5698;47.332;11.180;2024-03-02T05:08:10;4.57;;;4.00;;
11283;SDS011;5698;47.332;11.180;2024-03-02T05:10:38;4.77;;;4.00;;
11283;SDS011;5698;47.332;11.180;2024-03-02T05:13:05;4.70;;;4.20;;
11283;SDS011;5698;47.332;11.180;2024-03-02T05:15:32;3.87;;;3.43;;
11283;SDS011;5698;47.332;11.180;2024-03-02T05:17:59;5.30;;;4.37;;
11283;SDS011;5698;47.332;11.180;2024-03-02T05:20:27;4.73;;;3.87;;
11283;SDS011;5698;47.332;11.180;2024-03-02T05:22:54;4.23;;;3.50;;
11283;SDS011;5698;47.332;11.180;2024-03-02T05:25:21;4.73;;;4.20;;
11283;SDS011;5698;47.332;11.180;2024-03-02T05:27:48;3.53;;;3.17;;
11283;SDS011;5698;47.332;11.180;2024-03-02T05:30:15;3.97;;;3.53;;
11283;SDS011;5698;47.332;11.180;2024-03-02T05:32:44;3.60;;;3.20;;
11283;SDS011;5698;47.332;11.180;2024-03-02T05:35:11;3.73;;;3.33;;
11283;SDS011;5698;47.332;11.180;2024-03-02T05:37:38;2.90;;;2.70;;
11283;SDS011;5698;47.332;11.180;2024-03-02T05:40:06;4.10;;;3.70;;
11283;SDS011;5698;47.332;11.180;2024-03-02T05:42:34;3.60;;;3.10;;
11283;SDS011;5698;47.332;11.180;2024-03-02T05:45:01;4.23;;;3.17;;
11283;SDS011;5698;47.332;11.180;2024-03-02T05:47:27;3.70;;;3.40;;
11283;SDS011;5698;47.332;11.180;2024-03-02T05:49:56;4.17;;;3.63;;
11283;SDS011;5698;47.332;11.180;2024-03-02T05:52:23;3.67;;;3.37;;
11283;SDS011;5698;47.332;11.180;2024-03-02T05:54:50;3.20;;;2.80;;
11283;SDS011;5698;47.332;11.180;2024-03-02T05:57:17;3.43;;;2.93;;
11283;SDS011;5698;47.332;11.180;2024-03-02T05:59:57;3.30;;;2.83;;
11283;SDS011;5698;47.332;11.180;2024-03-02T06:02:24;3.00;;;2.70;;
11283;SDS011;5698;47.332;11.180;2024-03-02T06:04:53;3.00;;;2.70;;
11283;SDS011;5698;47.332;11.180;2024-03-02T06:07:22;4.13;;;2.63;;
11283;SDS011;5698;47.332;11.180;2024-03-02T06:09:49;2.70;;;2.43;;
11283;SDS011;5698;47.332;11.180;2024-03-02T06:12:17;3.97;;;2.77;;
11283;SDS011;5698;47.332;11.180;2024-03-02T06:14:45;3.63;;;2.47;;
11283;SDS011;5698;47.332;11.180;2024-03-02T06:17:12;2.83;;;2.57;;
11283;SDS011;5698;47.332;11.180;2024-03-02T06:19:39;2.20;;;2.00;;
11283;SDS011;5698;47.332;11.180;2024-03-02T06:22:07;3.47;;;2.27;;
11283;SDS011;5698;47.332;11.180;2024-03-02T06:24:35;2.30;;;2.10;;
11283;SDS011;5698;47.332;11.180;2024-03-02T06:27:03;2.17;;;1.93;;
11283;SDS011;5698;47.332;11.180;2024-03-02T06:29:32;2.87;;;2.20;;
11283;SDS011;5698;47.332;11.180;2024-03-02T06:31:59;2.20;;;2.00;;
11283;SDS011;5698;47.332;11.180;2024-03-02T06:34:26;2.40;;;2.20;;
11283;SDS011;5698;47.332;11.180;2024-03-02T06:36:53;2.10;;;1.90;;
11283;SDS011;5698;47.332;11.180;2024-03-02T06:39:22;2.30;;;2.10;;
11283;SDS011;5698;47.332;11.180;2024-03-02T06:41:49;2.00;;;1.83;;
11283;SDS011;5698;47.332;11.180;2024-03-02T06:44:16;1.80;;;1.70;;
11283;SDS011;5698;47.332;11.180;2024-03-02T06:46:43;1.70;;;1.60;;
11283;SDS011;5698;47.332;11.180;2024-03-02T06:49:10;1.50;;;1.40;;
11283;SDS011;5698;47.332;11.180;2024-03-02T06:51:37;2.40;;;2.10;;
11283;SDS011;5698;47.332;11.180;2024-03-02T06:54:04;2.20;;;2.00;;
11283;SDS011;5698;47.332;11.180;2024-03-02T06:56:32;2.27;;;2.07;;
11283;SDS011;5698;47.332;11.180;2024-03-02T06:58:59;2.73;;;2.30;;
11283;SDS011;5698;47.332;11.180;2024-03-02T07:01:26;2.53;;;2.20;;
11283;SDS011;5698;47.332;11.180;2024-03-02T07:03:53;3.20;;;2.90;;
11283;SDS011;5698;47.332;11.180;2024-03-02T07:06:20;2.20;;;2.00;;
11283;SDS011;5698;47.332;11.180;2024-03-02T07:08:47;3.00;;;2.40;;
11283;SDS011;5698;47.332;11.180;2024-03-02T07:11:14;2.90;;;2.40;;
11283;SDS011;5698;47.332;11.180;2024-03-02T07:13:42;2.37;;;2.17;;
11283;SDS011;5698;47.332;11.180;2024-03-02T07:16:09;2.67;;;2.10;;
11283;SDS011;5698;47.332;11.180;2024-03-02T07:18:52;2.30;;;2.10;;
11283;SDS011;5698;47.332;11.180;2024-03-02T07:21:21;3.23;;;2.20;;
11283;SDS011;5698;47.332;11.180;2024-03-02T07:23:48;2.00;;;1.80;;
11283;SDS011;5698;47.332;11.180;2024-03-02T07:26:16;2.70;;;2.00;;
11283;SDS011;5698;47.332;11.180;2024-03-02T07:28:45;2.33;;;2.13;;
11283;SDS011;5698;47.332;11.180;2024-03-02T07:31:14;2.43;;;2.23;;
11283;SDS011;5698;47.332;11.180;2024-03-02T07:33:45;2.07;;;1.80;;
11283;SDS011;5698;47.332;11.180;2024-03-02T07:36:12;2.13;;;1.93;;
11283;SDS011;5698;47.332;11.180;2024-03-02T07:38:40;2.30;;;2.10;;
11283;SDS011;5698;47.332;11.180;2024-03-02T07:41:07;3.43;;;2.70;;
11283;SDS011;5698;47.332;11.180;2024-03-02T07:43:34;3.03;;;2.60;;
11283;SDS011;5698;47.332;11.180;2024-03-02T07:46:03;2.10;;;1.90;;
11283;SDS011;5698;47.332;11.180;2024-03-02T07:48:30;2.27;;;2.07;;
11283;SDS011;5698;47.332;11.180;2024-03-02T07:50:57;2.30;;;2.10;;
11283;SDS011;5698;47.332;11.180;2024-03-02T07:53:24;5.00;;;2.77;;
11283;SDS011;5698;47.332;11.180;2024-03-02T07:55:50;2.97;;;2.60;;
11283;SDS011;5698;47.332;11.180;2024-03-02T07:58:18;2.60;;;2.27;;
11283;SDS011;5698;47.332;11.180;2024-03-02T08:00:45;2.20;;;2.00;;
11283;SDS011;5698;47.332;11.180;2024-03-02T08:03:14;2.30;;;2.10;;
11283;SDS011;5698;47.332;11.180;2024-03-02T08:05:41;2.57;;;2.37;;
11283;SDS011;5698;47.332;11.180;2024-03-02T08:08:08;2.53;;;2.33;;
11283;SDS011;5698;47.332;11.180;2024-03-02T08:10:35;3.20;;;2.40;;
11283;SDS011;5698;47.332;11.180;2024-03-02T08:13:02;2.60;;;2.23;;
11283;SDS011;5698;47.332;11.180;2024-03-02T08:15:29;2.23;;;1.83;;
11283;SDS011;5698;47.332;11.180;2024-03-02T08:17:56;2.93;;;2.10;;
11283;SDS011;5698;47.332;11.180;2024-03-02T08:20:25;2.07;;;1.90;;
11283;SDS011;5698;47.332;11.180;2024-03-02T08:22:52;2.00;;;1.80;;
11283;SDS011;5698;47.332;11.180;2024-03-02T08:25:20;2.00;;;1.87;;
11283;SDS011;5698;47.332;11.180;2024-03-02T08:27:47;2.00;;;1.90;;
11283;SDS011;5698;47.332;11.180;2024-03-02T08:30:14;1.60;;;1.50;;
11283;SDS011;5698;47.332;11.180;2024-03-02T08:32:43;2.60;;;1.90;;
11283;SDS011;5698;47.332;11.180;2024-03-02T08:35:10;1.37;;;1.27;;
11283;SDS011;5698;47.332;11.180;2024-03-02T08:37:39;1.40;;;1.30;;
11283;SDS011;5698;47.332;11.180;2024-03-02T08:40:08;2.20;;;1.73;;
11283;SDS011;5698;47.332;11.180;2024-03-02T08:42:35;2.10;;;1.90;;
11283;SDS011;5698;47.332;11.180;2024-03-02T08:45:03;2.07;;;1.87;;
11283;SDS011;5698;47.332;11.180;2024-03-02T08:47:31;2.10;;;1.57;;
11283;SDS011;5698;47.332;11.180;2024-03-02T08:49:58;2.13;;;1.60;;
11283;SDS011;5698;47.332;11.180;2024-03-02T08:52:25;1.53;;;1.43;;
11283;SDS011;5698;47.332;11.180;2024-03-02T08:54:54;2.17;;;1.20;;
11283;SDS011;5698;47.332;11.180;2024-03-02T08:57:21;1.63;;;1.20;;
11283;SDS011;5698;47.332;11.180;2024-03-02T08:59:48;1.00;;;1.00;;
11283;SDS011;5698;47.332;11.180;2024-03-02T09:02:15;1.53;;;1.10;;
11283;SDS011;5698;47.332;11.180;2024-03-02T09:04:42;1.90;;;1.00;;
11283;SDS011;5698;47.332;11.180;2024-03-02T09:07:09;1.50;;;1.10;;
11283;SDS011;5698;47.332;11.180;2024-03-02T09:09:36;1.43;;;1.10;;
11283;SDS011;5698;47.332;11.180;2024-03-02T09:12:06;1.57;;;1.00;;
11283;SDS011;5698;47.332;11.180;2024-03-02T09:14:33;1.57;;;1.03;;
11283;SDS011;5698;47.332;11.180;2024-03-02T09:17:02;2.10;;;1.30;;
11283;SDS011;5698;47.332;11.180;2024-03-02T09:19:30;1.13;;;1.03;;
11283;SDS011;5698;47.332;11.180;2024-03-02T09:21:57;1.47;;;1.37;;
11283;SDS011;5698;47.332;11.180;2024-03-02T09:24:23;2.57;;;1.33;;
11283;SDS011;5698;47.332;11.180;2024-03-02T09:26:51;2.40;;;1.20;;
11283;SDS011;5698;47.332;11.180;2024-03-02T09:29:22;1.80;;;1.03;;
11283;SDS011;5698;47.332;11.180;2024-03-02T09:31:49;2.10;;;1.33;;
11283;SDS011;5698;47.332;11.180;2024-03-02T09:34:16;1.63;;;1.00;;
11283;SDS011;5698;47.332;11.180;2024-03-02T09:36:43;1.63;;;1.10;;
11283;SDS011;5698;47.332;11.180;2024-03-02T09:39:10;1.23;;;1.13;;
11283;SDS011;5698;47.332;11.180;2024-03-02T09:41:37;1.30;;;1.20;;
11283;SDS011;5698;47.332;11.180;2024-03-02T09:44:04;1.03;;;0.80;;
11283;SDS011;5698;47.332;11.180;2024-03-02T09:46:33;1.20;;;1.10;;
11283;SDS011;5698;47.332;11.180;2024-03-02T09:49:01;2.07;;;1.27;;
11283;SDS011;5698;47.332;11.180;2024-03-02T09:51:28;3.77;;;1.20;;
11283;SDS011;5698;47.332;11.180;2024-03-02T09:53:55;1.60;;;1.10;;
11283;SDS011;5698;47.332;11.180;2024-03-02T09:56:22;1.20;;;1.10;;
11283;SDS011;5698;47.332;11.180;2024-03-02T09:58:49;1.23;;;1.13;;
11283;SDS011;5698;47.332;11.180;2024-03-02T10:01:17;1.43;;;1.03;;
11283;SDS011;5698;47.332;11.180;2024-03-02T10:03:45;1.33;;;1.10;;
11283;SDS011;5698;47.332;11.180;2024-03-02T10:06:18;2.37;;;1.10;;
11283;SDS011;5698;47.332;11.180;2024-03-02T10:08:46;1.03;;;0.90;;
11283;SDS011;5698;47.332;11.180;2024-03-02T10:11:25;2.83;;;1.00;;
11283;SDS011;5698;47.332;11.180;2024-03-02T10:14:03;2.60;;;1.03;;
11283;SDS011;5698;47.332;11.180;2024-03-02T10:16:33;2.27;;;1.10;;
11283;SDS011;5698;47.332;11.180;2024-03-02T10:19:14;1.10;;;1.00;;
11283;SDS011;5698;47.332;11.180;2024-03-02T10:21:42;1.83;;;1.13;;
11283;SDS011;5698;47.332;11.180;2024-03-02T10:24:10;2.33;;;1.20;;
11283;SDS011;5698;47.332;11.180;2024-03-02T10:26:37;1.80;;;1.20;;
11283;SDS011;5698;47.332;11.180;2024-03-02T10:29:04;1.23;;;1.13;;
11283;SDS011;5698;47.332;11.180;2024-03-02T10:31:31;1.43;;;1.10;;
11283;SDS011;5698;47.332;11.180;2024-03-02T10:33:59;1.97;;;1.50;;
11283;SDS011;5698;47.332;11.180;2024-03-02T10:36:29;1.93;;;1.30;;
11283;SDS011;5698;47.332;11.180;2024-03-02T10:38:56;2.03;;;1.50;;
11283;SDS011;5698;47.332;11.180;2024-03-02T10:41:24;2.03;;;1.27;;
11283;SDS011;5698;47.332;11.180;2024-03-02T10:43:53;1.60;;;1.30;;
11283;SDS011;5698;47.332;11.180;2024-03-02T10:46:25;1.60;;;1.13;;
11283;SDS011;5698;47.332;11.180;2024-03-02T10:48:55;1.70;;;1.33;;
11283;SDS011;5698;47.332;11.180;2024-03-02T10:51:24;1.40;;;1.07;;
11283;SDS011;5698;47.332;11.180;2024-03-02T10:53:54;1.40;;;1.13;;
11283;SDS011;5698;47.332;11.180;2024-03-02T10:56:22;1.30;;;1.20;;
11283;SDS011;5698;47.332;11.180;2024-03-02T10:58:55;1.60;;;1.33;;
11283;SDS011;5698;47.332;11.180;2024-03-02T11:01:29;1.80;;;1.40;;
11283;SDS011;5698;47.332;11.180;2024-03-02T11:03:59;1.70;;;1.50;;
11283;SDS011;5698;47.332;11.180;2024-03-02T11:06:28;2.43;;;1.47;;
11283;SDS011;5698;47.332;11.180;2024-03-02T11:09:00;1.40;;;1.30;;
11283;SDS011;5698;47.332;11.180;2024-03-02T11:11:32;2.83;;;1.57;;
11283;SDS011;5698;47.332;11.180;2024-03-02T11:14:01;2.20;;;1.47;;
11283;SDS011;5698;47.332;11.180;2024-03-02T11:16:34;2.03;;;1.57;;
11283;SDS011;5698;47.332;11.180;2024-03-02T11:19:02;2.70;;;1.80;;
11283;SDS011;5698;47.332;11.180;2024-03-02T11:21:32;2.80;;;1.37;;
11283;SDS011;5698;47.332;11.180;2024-03-02T11:24:01;1.47;;;1.23;;
11283;SDS011;5698;47.332;11.180;2024-03-02T11:26:58;1.43;;;1.10;;
11283;SDS011;5698;47.332;11.180;2024-03-02T11:32:20;2.83;;;1.00;;
11283;SDS011;5698;47.332;11.180;2024-03-02T11:34:49;1.80;;;1.57;;
11283;SDS011;5698;47.332;11.180;2024-03-02T11:37:17;1.47;;;1.10;;
11283;SDS011;5698;47.332;11.180;2024-03-02T11:39:47;1.47;;;1.20;;
11283;SDS011;5698;47.332;11.180;2024-03-02T11:42:16;2.73;;;1.23;;
11283;SDS011;5698;47.332;11.180;2024-03-02T11:44:44;1.83;;;1.07;;
11283;SDS011;5698;47.332;11.180;2024-03-02T11:47:14;1.33;;;1.10;;
11283;SDS011;5698;47.332;11.180;2024-03-02T11:49:42;2.13;;;1.20;;
11283;SDS011;5698;47.332;11.180;2024-03-02T11:52:10;1.23;;;1.13;;
11283;SDS011;5698;47.332;11.180;2024-03-02T11:54:40;1.60;;;1.40;;
11283;SDS011;5698;47.332;11.180;2024-03-02T11:57:13;1.70;;;1.30;;
11283;SDS011;5698;47.332;11.180;2024-03-02T11:59:41;1.80;;;1.40;;
11283;SDS011;5698;47.332;11.180;2024-03-02T12:02:13;1.43;;;1.20;;
11283;SDS011;5698;47.332;11.180;2024-03-02T12:04:43;1.87;;;1.37;;
11283;SDS011;5698;47.332;11.180;2024-03-02T12:07:10;2.07;;;1.03;;
11283;SDS011;5698;47.332;11.180;2024-03-02T12:09:38;1.40;;;1.10;;
11283;SDS011;5698;47.332;11.180;2024-03-02T12:12:05;2.30;;;1.40;;
11283;SDS011;5698;47.332;11.180;2024-03-02T12:14:35;1.50;;;1.40;;
11283;SDS011;5698;47.332;11.180;2024-03-02T12:17:03;1.57;;;1.40;;
11283;SDS011;5698;47.332;11.180;2024-03-02T12:19:32;1.77;;;1.63;;
11283;SDS011;5698;47.332;11.180;2024-03-02T12:21:59;2.00;;;1.37;;
11283;SDS011;5698;47.332;11.180;2024-03-02T12:24:27;2.13;;;1.67;;
11283;SDS011;5698;47.332;11.180;2024-03-02T12:26:56;1.83;;;1.60;;
11283;SDS011;5698;47.332;11.180;2024-03-02T12:29:24;2.13;;;1.57;;
11283;SDS011;5698;47.332;11.180;2024-03-02T12:31:52;2.17;;;1.57;;
11283;SDS011;5698;47.332;11.180;2024-03-02T12:34:20;1.40;;;1.30;;
11283;SDS011;5698;47.332;11.180;2024-03-02T12:36:48;1.77;;;1.13;;
11283;SDS011;5698;47.332;11.180;2024-03-02T12:39:18;1.47;;;1.37;;
11283;SDS011;5698;47.332;11.180;2024-03-02T12:41:45;1.27;;;1.17;;
11283;SDS011;5698;47.332;11.180;2024-03-02T12:44:15;2.37;;;1.47;;
11283;SDS011;5698;47.332;11.180;2024-03-02T12:46:42;1.50;;;1.10;;
11283;SDS011;5698;47.332;11.180;2024-03-02T12:49:11;1.67;;;1.00;;
11283;SDS011;5698;47.332;11.180;2024-03-02T12:51:41;1.53;;;1.30;;
11283;SDS011;5698;47.332;11.180;2024-03-02T12:54:09;1.50;;;1.20;;
11283;SDS011;5698;47.332;11.180;2024-03-02T12:56:37;1.83;;;1.10;;
11283;SDS011;5698;47.332;11.180;2024-03-02T12:59:04;0.87;;;0.87;;
11283;SDS011;5698;47.332;11.180;2024-03-02T13:01:31;0.60;;;0.60;;
11283;SDS011;5698;47.332;11.180;2024-03-02T13:03:58;0.60;;;0.50;;
11283;SDS011;5698;47.332;11.180;2024-03-02T13:06:27;0.53;;;0.53;;
11283;SDS011;5698;47.332;11.180;2024-03-02T13:08:54;0.90;;;0.50;;
11283;SDS011;5698;47.332;11.180;2024-03-02T13:11:22;1.33;;;1.13;;
11283;SDS011;5698;47.332;11.180;2024-03-02T13:13:49;1.90;;;0.50;;
11283;SDS011;5698;47.332;11.180;2024-03-02T13:16:17;1.10;;;0.90;;
11283;SDS011;5698;47.332;11.180;2024-03-02T13:18:45;0.97;;;0.70;;
11283;SDS011;5698;47.332;11.180;2024-03-02T13:21:12;1.37;;;0.80;;
11283;SDS011;5698;47.332;11.180;2024-03-02T13:23:41;1.20;;;0.80;;
11283;SDS011;5698;47.332;11.180;2024-03-02T13:26:08;1.13;;;0.70;;
11283;SDS011;5698;47.332;11.180;2024-03-02T13:28:37;1.03;;;0.60;;
11283;SDS011;5698;47.332;11.180;2024-03-02T13:31:05;0.73;;;0.60;;
11283;SDS011;5698;47.332;11.180;2024-03-02T13:33:32;1.17;;;0.60;;
11283;SDS011;5698;47.332;11.180;2024-03-02T13:35:59;1.13;;;0.60;;
11283;SDS011;5698;47.332;11.180;2024-03-02T13:38:26;0.40;;;0.40;;
11283;SDS011;5698;47.332;11.180;2024-03-02T13:40:55;0.77;;;0.40;;
11283;SDS011;5698;47.332;11.180;2024-03-02T13:43:22;0.27;;;0.27;;
11283;SDS011;5698;47.332;11.180;2024-03-02T13:45:49;0.90;;;0.40;;
11283;SDS011;5698;47.332;11.180;2024-03-02T13:48:18;0.30;;;0.30;;
11283;SDS011;5698;47.332;11.180;2024-03-02T13:50:45;0.30;;;0.30;;
11283;SDS011;5698;47.332;11.180;2024-03-02T13:53:12;1.40;;;0.30;;
11283;SDS011;5698;47.332;11.180;2024-03-02T13:55:39;1.07;;;0.17;;
11283;SDS011;5698;47.332;11.180;2024-03-02T13:58:08;0.70;;;0.30;;
11283;SDS011;5698;47.332;11.180;2024-03-02T14:00:36;0.20;;;0.20;;
11283;SDS011;5698;47.332;11.180;2024-03-02T14:03:03;0.97;;;0.30;;
11283;SDS011;5698;47.332;11.180;2024-03-02T14:05:32;0.40;;;0.30;;
11283;SDS011;5698;47.332;11.180;2024-03-02T14:07:59;0.20;;;0.20;;
11283;SDS011;5698;47.332;11.180;2024-03-02T14:10:26;0.57;;;0.30;;
11283;SDS011;5698;47.332;11.180;2024-03-02T14:12:54;0.30;;;0.30;;
11283;SDS011;5698;47.332;11.180;2024-03-02T14:15:23;0.30;;;0.30;;
11283;SDS011;5698;47.332;11.180;2024-03-02T14:17:50;0.70;;;0.40;;
11283;SDS011;5698;47.332;11.180;2024-03-02T14:20:17;0.40;;;0.40;;
11283;SDS011;5698;47.332;11.180;2024-03-02T14:22:47;0.47;;;0.20;;
11283;SDS011;5698;47.332;11.180;2024-03-02T14:25:15;0.53;;;0.40;;
11283;SDS011;5698;47.332;11.180;2024-03-02T14:27:42;1.13;;;0.40;;
11283;SDS011;5698;47.332;11.180;2024-03-02T14:30:10;0.77;;;0.30;;
11283;SDS011;5698;47.332;11.180;2024-03-02T14:32:39;0.40;;;0.40;;
11283;SDS011;5698;47.332;11.180;2024-03-02T14:35:06;0.83;;;0.43;;
11283;SDS011;5698;47.332;11.180;2024-03-02T14:37:36;0.80;;;0.50;;
11283;SDS011;5698;47.332;11.180;2024-03-02T14:40:04;1.70;;;0.40;;
11283;SDS011;5698;47.332;11.180;2024-03-02T14:42:34;0.67;;;0.40;;
11283;SDS011;5698;47.332;11.180;2024-03-02T14:45:01;0.43;;;0.40;;
11283;SDS011;5698;47.332;11.180;2024-03-02T14:47:31;0.40;;;0.40;;
11283;SDS011;5698;47.332;11.180;2024-03-02T14:49:59;1.53;;;0.30;;
11283;SDS011;5698;47.332;11.180;2024-03-02T14:52:28;0.23;;;0.20;;
11283;SDS011;5698;47.332;11.180;2024-03-02T14:54:55;0.50;;;0.30;;